sensor_id;sensor_type;location;lat;lon;timestamp;P1;durP1;ratioP1;P2;durP2;ratioP2
16878;SDS011;8556;52.218;9.884;2023-05-10T00:01:58;4.47;;;3.37;;
16878;SDS011;8556;52.218;9.884;2023-05-10T00:07:26;4.70;;;3.73;;
16878;SDS011;8556;52.218;9.884;2023-05-10T00:10:32;4.23;;;3.60;;
16878;SDS011;8556;52.218;9.884;2023-05-10T00:13:03;5.50;;;3.60;;
16878;SDS011;8556;52.218;9.884;2023-05-10T00:15:30;5.10;;;3.50;;
16878;SDS011;8556;52.218;9.884;2023-05-10T00:18:16;5.23;;;3.60;;
16878;SDS011;8556;52.218;9.884;2023-05-10T00:20:45;6.03;;;4.00;;
16878;SDS011;8556;52.218;9.884;2023-05-10T00:23:18;5.17;;;3.60;;
16878;SDS011;8556;52.218;9.884;2023-05-10T00:26:09;6.63;;;4.00;;
16878;SDS011;8556;52.218;9.884;2023-05-10T00:28:47;5.27;;;3.73;;
16878;SDS011;8556;52.218;9.884;2023-05-10T00:31:29;5.33;;;4.00;;
16878;SDS011;8556;52.218;9.884;2023-05-10T00:33:57;6.43;;;3.83;;
16878;SDS011;8556;52.218;9.884;2023-05-10T00:39:24;7.70;;;4.10;;
16878;SDS011;8556;52.218;9.884;2023-05-10T00:42:05;6.17;;;3.70;;
16878;SDS011;8556;52.218;9.884;2023-05-10T00:44:38;5.20;;;3.90;;
16878;SDS011;8556;52.218;9.884;2023-05-10T00:47:09;7.10;;;3.60;;
16878;SDS011;8556;52.218;9.884;2023-05-10T00:49:46;4.03;;;3.37;;
16878;SDS011;8556;52.218;9.884;2023-05-10T00:52:15;5.83;;;3.80;;
16878;SDS011;8556;52.218;9.884;2023-05-10T00:54:42;4.77;;;3.47;;
16878;SDS011;8556;52.218;9.884;2023-05-10T00:57:20;5.23;;;3.80;;
16878;SDS011;8556;52.218;9.884;2023-05-10T00:59:50;6.57;;;3.97;;
16878;SDS011;8556;52.218;9.884;2023-05-10T01:02:23;6.13;;;3.97;;
16878;SDS011;8556;52.218;9.884;2023-05-10T01:05:03;5.53;;;3.90;;
16878;SDS011;8556;52.218;9.884;2023-05-10T01:10:34;5.87;;;4.37;;
16878;SDS011;8556;52.218;9.884;2023-05-10T01:13:30;4.97;;;4.13;;
16878;SDS011;8556;52.218;9.884;2023-05-10T01:16:12;4.83;;;4.20;;
16878;SDS011;8556;52.218;9.884;2023-05-10T01:18:54;7.10;;;4.47;;
16878;SDS011;8556;52.218;9.884;2023-05-10T01:21:29;5.17;;;3.90;;
16878;SDS011;8556;52.218;9.884;2023-05-10T01:27:17;6.67;;;3.70;;
16878;SDS011;8556;52.218;9.884;2023-05-10T01:30:12;6.50;;;3.70;;
16878;SDS011;8556;52.218;9.884;2023-05-10T01:33:15;7.13;;;4.17;;
16878;SDS011;8556;52.218;9.884;2023-05-10T01:36:02;5.10;;;3.57;;
16878;SDS011;8556;52.218;9.884;2023-05-10T01:38:57;5.63;;;4.33;;
16878;SDS011;8556;52.218;9.884;2023-05-10T01:41:36;8.60;;;4.20;;
16878;SDS011;8556;52.218;9.884;2023-05-10T01:44:20;7.07;;;4.23;;
16878;SDS011;8556;52.218;9.884;2023-05-10T01:46:58;8.33;;;4.90;;
16878;SDS011;8556;52.218;9.884;2023-05-10T01:49:41;7.53;;;4.57;;
16878;SDS011;8556;52.218;9.884;2023-05-10T01:52:26;7.20;;;4.57;;
16878;SDS011;8556;52.218;9.884;2023-05-10T01:55:04;6.90;;;4.73;;
16878;SDS011;8556;52.218;9.884;2023-05-10T02:00:37;8.50;;;4.40;;
16878;SDS011;8556;52.218;9.884;2023-05-10T02:03:26;5.30;;;4.20;;
16878;SDS011;8556;52.218;9.884;2023-05-10T02:06:12;5.77;;;4.33;;
16878;SDS011;8556;52.218;9.884;2023-05-10T02:11:37;5.83;;;4.43;;
16878;SDS011;8556;52.218;9.884;2023-05-10T02:14:20;7.67;;;4.70;;
16878;SDS011;8556;52.218;9.884;2023-05-10T02:16:53;7.70;;;4.33;;
16878;SDS011;8556;52.218;9.884;2023-05-10T02:19:33;9.10;;;4.77;;
16878;SDS011;8556;52.218;9.884;2023-05-10T02:22:18;7.67;;;4.90;;
16878;SDS011;8556;52.218;9.884;2023-05-10T02:25:02;7.93;;;4.77;;
16878;SDS011;8556;52.218;9.884;2023-05-10T02:27:33;8.43;;;4.60;;
16878;SDS011;8556;52.218;9.884;2023-05-10T02:30:09;7.67;;;5.17;;
16878;SDS011;8556;52.218;9.884;2023-05-10T02:32:46;6.53;;;4.93;;
16878;SDS011;8556;52.218;9.884;2023-05-10T02:35:32;7.30;;;4.90;;
16878;SDS011;8556;52.218;9.884;2023-05-10T02:38:07;7.77;;;5.03;;
16878;SDS011;8556;52.218;9.884;2023-05-10T02:40:41;6.73;;;5.17;;
16878;SDS011;8556;52.218;9.884;2023-05-10T02:43:20;7.53;;;4.87;;
16878;SDS011;8556;52.218;9.884;2023-05-10T02:46:06;7.80;;;4.83;;
16878;SDS011;8556;52.218;9.884;2023-05-10T02:48:34;6.90;;;5.37;;
16878;SDS011;8556;52.218;9.884;2023-05-10T02:51:02;8.23;;;5.70;;
16878;SDS011;8556;52.218;9.884;2023-05-10T02:53:34;9.57;;;4.97;;
16878;SDS011;8556;52.218;9.884;2023-05-10T02:56:05;8.53;;;5.67;;
16878;SDS011;8556;52.218;9.884;2023-05-10T02:58:38;8.17;;;5.47;;
16878;SDS011;8556;52.218;9.884;2023-05-10T03:01:07;7.37;;;5.53;;
16878;SDS011;8556;52.218;9.884;2023-05-10T03:03:37;6.73;;;5.20;;
16878;SDS011;8556;52.218;9.884;2023-05-10T03:06:04;9.50;;;5.93;;
16878;SDS011;8556;52.218;9.884;2023-05-10T03:08:31;6.77;;;5.20;;
16878;SDS011;8556;52.218;9.884;2023-05-10T03:11:07;12.70;;;5.47;;
16878;SDS011;8556;52.218;9.884;2023-05-10T03:13:44;10.23;;;6.63;;
16878;SDS011;8556;52.218;9.884;2023-05-10T03:16:24;9.47;;;5.67;;
16878;SDS011;8556;52.218;9.884;2023-05-10T03:18:56;7.07;;;5.77;;
16878;SDS011;8556;52.218;9.884;2023-05-10T03:21:30;7.60;;;5.80;;
16878;SDS011;8556;52.218;9.884;2023-05-10T03:23:59;8.97;;;5.70;;
16878;SDS011;8556;52.218;9.884;2023-05-10T03:26:32;9.13;;;6.40;;
16878;SDS011;8556;52.218;9.884;2023-05-10T03:29:03;8.77;;;6.27;;
16878;SDS011;8556;52.218;9.884;2023-05-10T03:31:32;11.57;;;6.33;;
16878;SDS011;8556;52.218;9.884;2023-05-10T03:33:59;9.37;;;6.50;;
16878;SDS011;8556;52.218;9.884;2023-05-10T03:36:26;9.20;;;6.07;;
16878;SDS011;8556;52.218;9.884;2023-05-10T03:38:53;8.73;;;6.20;;
16878;SDS011;8556;52.218;9.884;2023-05-10T03:41:20;13.87;;;7.30;;
16878;SDS011;8556;52.218;9.884;2023-05-10T03:43:48;9.10;;;6.40;;
16878;SDS011;8556;52.218;9.884;2023-05-10T03:46:15;9.77;;;6.33;;
16878;SDS011;8556;52.218;9.884;2023-05-10T03:48:42;8.37;;;6.13;;
16878;SDS011;8556;52.218;9.884;2023-05-10T03:51:08;10.00;;;6.23;;
16878;SDS011;8556;52.218;9.884;2023-05-10T03:53:35;10.53;;;6.93;;
16878;SDS011;8556;52.218;9.884;2023-05-10T03:56:05;9.63;;;6.43;;
16878;SDS011;8556;52.218;9.884;2023-05-10T03:58:32;10.30;;;6.93;;
16878;SDS011;8556;52.218;9.884;2023-05-10T04:01:07;10.57;;;7.23;;
16878;SDS011;8556;52.218;9.884;2023-05-10T04:03:37;9.93;;;6.83;;
16878;SDS011;8556;52.218;9.884;2023-05-10T04:06:06;11.60;;;7.83;;
16878;SDS011;8556;52.218;9.884;2023-05-10T04:08:36;10.57;;;7.30;;
16878;SDS011;8556;52.218;9.884;2023-05-10T04:11:08;10.23;;;6.93;;
16878;SDS011;8556;52.218;9.884;2023-05-10T04:13:36;10.70;;;7.43;;
16878;SDS011;8556;52.218;9.884;2023-05-10T04:16:11;12.00;;;7.23;;
16878;SDS011;8556;52.218;9.884;2023-05-10T04:18:41;10.13;;;7.07;;
16878;SDS011;8556;52.218;9.884;2023-05-10T04:21:11;9.87;;;6.90;;
16878;SDS011;8556;52.218;9.884;2023-05-10T04:23:38;11.40;;;7.27;;
16878;SDS011;8556;52.218;9.884;2023-05-10T04:26:05;10.40;;;7.00;;
16878;SDS011;8556;52.218;9.884;2023-05-10T04:28:34;11.33;;;7.23;;
16878;SDS011;8556;52.218;9.884;2023-05-10T04:31:09;11.03;;;7.47;;
16878;SDS011;8556;52.218;9.884;2023-05-10T04:33:39;11.93;;;7.63;;
16878;SDS011;8556;52.218;9.884;2023-05-10T04:36:09;9.63;;;6.67;;
16878;SDS011;8556;52.218;9.884;2023-05-10T04:38:36;11.17;;;7.40;;
16878;SDS011;8556;52.218;9.884;2023-05-10T04:41:06;10.10;;;6.57;;
16878;SDS011;8556;52.218;9.884;2023-05-10T04:43:33;11.07;;;7.23;;
16878;SDS011;8556;52.218;9.884;2023-05-10T04:46:04;12.17;;;7.60;;
16878;SDS011;8556;52.218;9.884;2023-05-10T04:48:33;10.67;;;7.30;;
16878;SDS011;8556;52.218;9.884;2023-05-10T04:51:00;12.43;;;7.67;;
16878;SDS011;8556;52.218;9.884;2023-05-10T04:53:30;12.40;;;7.97;;
16878;SDS011;8556;52.218;9.884;2023-05-10T04:56:00;12.93;;;7.80;;
16878;SDS011;8556;52.218;9.884;2023-05-10T04:58:32;13.13;;;7.63;;
16878;SDS011;8556;52.218;9.884;2023-05-10T05:01:06;11.33;;;7.30;;
16878;SDS011;8556;52.218;9.884;2023-05-10T05:03:37;11.00;;;7.63;;
16878;SDS011;8556;52.218;9.884;2023-05-10T05:06:04;12.40;;;8.00;;
16878;SDS011;8556;52.218;9.884;2023-05-10T05:08:33;12.53;;;7.50;;
16878;SDS011;8556;52.218;9.884;2023-05-10T05:11:22;10.87;;;7.80;;
16878;SDS011;8556;52.218;9.884;2023-05-10T05:13:59;11.53;;;7.93;;
16878;SDS011;8556;52.218;9.884;2023-05-10T05:16:30;11.50;;;8.30;;
16878;SDS011;8556;52.218;9.884;2023-05-10T05:18:59;12.20;;;7.60;;
16878;SDS011;8556;52.218;9.884;2023-05-10T05:21:29;10.70;;;7.43;;
16878;SDS011;8556;52.218;9.884;2023-05-10T05:23:57;12.30;;;7.33;;
16878;SDS011;8556;52.218;9.884;2023-05-10T05:26:31;12.37;;;7.20;;
16878;SDS011;8556;52.218;9.884;2023-05-10T05:29:12;11.13;;;7.20;;
16878;SDS011;8556;52.218;9.884;2023-05-10T05:31:39;9.60;;;6.37;;
16878;SDS011;8556;52.218;9.884;2023-05-10T05:34:18;13.37;;;7.27;;
16878;SDS011;8556;52.218;9.884;2023-05-10T05:36:57;8.33;;;6.20;;
16878;SDS011;8556;52.218;9.884;2023-05-10T05:39:40;12.20;;;6.20;;
16878;SDS011;8556;52.218;9.884;2023-05-10T05:42:09;8.17;;;5.77;;
16878;SDS011;8556;52.218;9.884;2023-05-10T05:44:45;9.13;;;6.23;;
16878;SDS011;8556;52.218;9.884;2023-05-10T05:47:24;10.47;;;6.63;;
16878;SDS011;8556;52.218;9.884;2023-05-10T05:49:53;9.33;;;6.40;;
16878;SDS011;8556;52.218;9.884;2023-05-10T05:52:20;8.57;;;5.80;;
16878;SDS011;8556;52.218;9.884;2023-05-10T05:54:49;8.63;;;6.27;;
16878;SDS011;8556;52.218;9.884;2023-05-10T05:57:16;12.33;;;6.37;;
16878;SDS011;8556;52.218;9.884;2023-05-10T05:59:51;13.10;;;6.77;;
16878;SDS011;8556;52.218;9.884;2023-05-10T06:02:18;10.57;;;6.87;;
16878;SDS011;8556;52.218;9.884;2023-05-10T06:04:48;9.23;;;6.50;;
16878;SDS011;8556;52.218;9.884;2023-05-10T06:07:16;11.77;;;7.50;;
16878;SDS011;8556;52.218;9.884;2023-05-10T06:09:43;10.10;;;6.63;;
16878;SDS011;8556;52.218;9.884;2023-05-10T06:12:10;8.90;;;6.53;;
16878;SDS011;8556;52.218;9.884;2023-05-10T06:14:37;8.90;;;5.73;;
16878;SDS011;8556;52.218;9.884;2023-05-10T06:17:09;7.87;;;6.03;;
16878;SDS011;8556;52.218;9.884;2023-05-10T06:19:36;7.60;;;5.80;;
16878;SDS011;8556;52.218;9.884;2023-05-10T06:22:09;7.83;;;6.23;;
16878;SDS011;8556;52.218;9.884;2023-05-10T06:24:38;9.53;;;6.00;;
16878;SDS011;8556;52.218;9.884;2023-05-10T06:27:23;9.57;;;5.67;;
16878;SDS011;8556;52.218;9.884;2023-05-10T06:29:50;10.03;;;6.67;;
16878;SDS011;8556;52.218;9.884;2023-05-10T06:32:22;6.97;;;5.87;;
16878;SDS011;8556;52.218;9.884;2023-05-10T06:34:50;8.93;;;6.20;;
16878;SDS011;8556;52.218;9.884;2023-05-10T06:37:17;7.83;;;6.17;;
16878;SDS011;8556;52.218;9.884;2023-05-10T06:39:50;8.80;;;6.43;;
16878;SDS011;8556;52.218;9.884;2023-05-10T06:42:23;9.43;;;6.27;;
16878;SDS011;8556;52.218;9.884;2023-05-10T06:44:53;8.00;;;6.13;;
16878;SDS011;8556;52.218;9.884;2023-05-10T06:47:22;9.73;;;6.10;;
16878;SDS011;8556;52.218;9.884;2023-05-10T06:49:49;7.30;;;5.70;;
16878;SDS011;8556;52.218;9.884;2023-05-10T06:52:16;9.63;;;6.23;;
16878;SDS011;8556;52.218;9.884;2023-05-10T06:54:43;8.47;;;6.80;;
16878;SDS011;8556;52.218;9.884;2023-05-10T06:57:12;8.73;;;6.40;;
16878;SDS011;8556;52.218;9.884;2023-05-10T06:59:41;7.30;;;5.80;;
16878;SDS011;8556;52.218;9.884;2023-05-10T07:02:11;7.30;;;5.57;;
16878;SDS011;8556;52.218;9.884;2023-05-10T07:04:46;9.80;;;6.30;;
16878;SDS011;8556;52.218;9.884;2023-05-10T07:07:13;8.40;;;6.00;;
16878;SDS011;8556;52.218;9.884;2023-05-10T07:09:42;8.43;;;6.03;;
16878;SDS011;8556;52.218;9.884;2023-05-10T07:12:22;8.30;;;5.70;;
16878;SDS011;8556;52.218;9.884;2023-05-10T07:14:52;7.00;;;5.93;;
16878;SDS011;8556;52.218;9.884;2023-05-10T07:17:21;7.23;;;5.40;;
16878;SDS011;8556;52.218;9.884;2023-05-10T07:19:51;8.17;;;5.67;;
16878;SDS011;8556;52.218;9.884;2023-05-10T07:22:25;9.10;;;6.07;;
16878;SDS011;8556;52.218;9.884;2023-05-10T07:25:00;9.53;;;6.17;;
16878;SDS011;8556;52.218;9.884;2023-05-10T07:27:31;8.17;;;6.10;;
16878;SDS011;8556;52.218;9.884;2023-05-10T07:30:05;7.53;;;5.37;;
16878;SDS011;8556;52.218;9.884;2023-05-10T07:32:32;5.57;;;4.90;;
16878;SDS011;8556;52.218;9.884;2023-05-10T07:35:01;7.90;;;5.20;;
16878;SDS011;8556;52.218;9.884;2023-05-10T07:37:40;7.07;;;5.47;;
16878;SDS011;8556;52.218;9.884;2023-05-10T07:40:10;7.40;;;5.47;;
16878;SDS011;8556;52.218;9.884;2023-05-10T07:42:49;7.13;;;4.83;;
16878;SDS011;8556;52.218;9.884;2023-05-10T07:45:16;9.10;;;4.80;;
16878;SDS011;8556;52.218;9.884;2023-05-10T07:47:45;4.80;;;3.83;;
16878;SDS011;8556;52.218;9.884;2023-05-10T07:50:14;5.43;;;4.27;;
16878;SDS011;8556;52.218;9.884;2023-05-10T07:52:41;4.73;;;4.13;;
16878;SDS011;8556;52.218;9.884;2023-05-10T07:55:08;4.73;;;4.23;;
16878;SDS011;8556;52.218;9.884;2023-05-10T07:57:36;11.13;;;7.23;;
16878;SDS011;8556;52.218;9.884;2023-05-10T08:00:14;8.87;;;6.63;;
16878;SDS011;8556;52.218;9.884;2023-05-10T08:02:47;6.20;;;4.67;;
16878;SDS011;8556;52.218;9.884;2023-05-10T08:05:14;6.23;;;4.43;;
16878;SDS011;8556;52.218;9.884;2023-05-10T08:07:55;5.33;;;4.37;;
16878;SDS011;8556;52.218;9.884;2023-05-10T08:10:25;7.40;;;4.67;;
16878;SDS011;8556;52.218;9.884;2023-05-10T08:12:55;4.77;;;4.27;;
16878;SDS011;8556;52.218;9.884;2023-05-10T08:15:24;4.20;;;3.80;;
16878;SDS011;8556;52.218;9.884;2023-05-10T08:17:54;4.53;;;4.13;;
16878;SDS011;8556;52.218;9.884;2023-05-10T08:20:23;5.67;;;4.30;;
16878;SDS011;8556;52.218;9.884;2023-05-10T08:22:53;5.97;;;4.10;;
16878;SDS011;8556;52.218;9.884;2023-05-10T08:25:22;5.73;;;4.23;;
16878;SDS011;8556;52.218;9.884;2023-05-10T08:27:57;4.90;;;3.67;;
16878;SDS011;8556;52.218;9.884;2023-05-10T08:30:25;3.60;;;3.20;;
16878;SDS011;8556;52.218;9.884;2023-05-10T08:32:52;3.37;;;3.07;;
16878;SDS011;8556;52.218;9.884;2023-05-10T08:35:22;3.70;;;3.20;;
16878;SDS011;8556;52.218;9.884;2023-05-10T08:37:54;3.73;;;3.27;;
16878;SDS011;8556;52.218;9.884;2023-05-10T08:40:24;4.57;;;3.30;;
16878;SDS011;8556;52.218;9.884;2023-05-10T08:42:54;4.63;;;3.07;;
16878;SDS011;8556;52.218;9.884;2023-05-10T08:45:26;4.17;;;3.50;;
16878;SDS011;8556;52.218;9.884;2023-05-10T08:47:58;3.90;;;3.50;;
16878;SDS011;8556;52.218;9.884;2023-05-10T08:50:27;3.53;;;2.93;;
16878;SDS011;8556;52.218;9.884;2023-05-10T08:52:55;4.43;;;3.53;;
16878;SDS011;8556;52.218;9.884;2023-05-10T08:55:26;3.40;;;3.10;;
16878;SDS011;8556;52.218;9.884;2023-05-10T08:57:58;3.10;;;2.80;;
16878;SDS011;8556;52.218;9.884;2023-05-10T09:00:28;2.50;;;2.30;;
16878;SDS011;8556;52.218;9.884;2023-05-10T09:03:01;3.90;;;2.30;;
16878;SDS011;8556;52.218;9.884;2023-05-10T09:05:28;2.10;;;2.00;;
16878;SDS011;8556;52.218;9.884;2023-05-10T09:07:59;1.53;;;1.40;;
16878;SDS011;8556;52.218;9.884;2023-05-10T09:10:26;0.93;;;0.93;;
16878;SDS011;8556;52.218;9.884;2023-05-10T09:12:56;0.67;;;0.67;;
16878;SDS011;8556;52.218;9.884;2023-05-10T09:15:27;0.83;;;0.77;;
16878;SDS011;8556;52.218;9.884;2023-05-10T09:17:57;0.77;;;0.77;;
16878;SDS011;8556;52.218;9.884;2023-05-10T09:20:27;0.40;;;0.40;;
16878;SDS011;8556;52.218;9.884;2023-05-10T09:22:56;0.90;;;0.73;;
16878;SDS011;8556;52.218;9.884;2023-05-10T09:25:23;1.50;;;0.50;;
16878;SDS011;8556;52.218;9.884;2023-05-10T09:27:53;0.60;;;0.60;;
16878;SDS011;8556;52.218;9.884;2023-05-10T09:30:23;0.80;;;0.80;;
16878;SDS011;8556;52.218;9.884;2023-05-10T09:32:53;0.73;;;0.73;;
16878;SDS011;8556;52.218;9.884;2023-05-10T09:35:22;2.87;;;0.90;;
16878;SDS011;8556;52.218;9.884;2023-05-10T09:37:52;0.73;;;0.67;;
16878;SDS011;8556;52.218;9.884;2023-05-10T09:40:22;0.57;;;0.57;;
16878;SDS011;8556;52.218;9.884;2023-05-10T09:42:53;1.23;;;0.80;;
16878;SDS011;8556;52.218;9.884;2023-05-10T09:45:23;1.33;;;1.23;;
16878;SDS011;8556;52.218;9.884;2023-05-10T09:47:53;1.30;;;1.30;;
16878;SDS011;8556;52.218;9.884;2023-05-10T09:50:20;1.13;;;1.07;;
16878;SDS011;8556;52.218;9.884;2023-05-10T09:52:50;2.53;;;1.00;;
16878;SDS011;8556;52.218;9.884;2023-05-10T09:55:19;1.43;;;1.33;;
16878;SDS011;8556;52.218;9.884;2023-05-10T09:57:47;0.90;;;0.90;;
16878;SDS011;8556;52.218;9.884;2023-05-10T10:00:18;1.10;;;1.00;;
16878;SDS011;8556;52.218;9.884;2023-05-10T10:02:53;2.20;;;1.30;;
16878;SDS011;8556;52.218;9.884;2023-05-10T10:05:27;1.50;;;1.40;;
16878;SDS011;8556;52.218;9.884;2023-05-10T10:07:59;1.00;;;1.00;;
16878;SDS011;8556;52.218;9.884;2023-05-10T10:10:30;2.50;;;1.00;;
16878;SDS011;8556;52.218;9.884;2023-05-10T10:12:58;2.27;;;1.47;;
16878;SDS011;8556;52.218;9.884;2023-05-10T10:15:26;2.28;;;1.60;;
16878;SDS011;8556;52.218;9.884;2023-05-10T10:17:57;1.30;;;1.25;;
16878;SDS011;8556;52.218;9.884;2023-05-10T10:20:24;1.83;;;1.73;;
16878;SDS011;8556;52.218;9.884;2023-05-10T10:22:54;3.03;;;2.47;;
16878;SDS011;8556;52.218;9.884;2023-05-10T10:25:21;1.50;;;1.40;;
16878;SDS011;8556;52.218;9.884;2023-05-10T10:27:56;1.77;;;1.20;;
16878;SDS011;8556;52.218;9.884;2023-05-10T10:30:35;2.03;;;1.83;;
16878;SDS011;8556;52.218;9.884;2023-05-10T10:33:18;1.90;;;1.60;;
16878;SDS011;8556;52.218;9.884;2023-05-10T10:36:00;1.63;;;1.52;;
16878;SDS011;8556;52.218;9.884;2023-05-10T10:38:38;2.47;;;2.28;;
16878;SDS011;8556;52.218;9.884;2023-05-10T10:41:27;2.00;;;1.90;;
16878;SDS011;8556;52.218;9.884;2023-05-10T10:47:00;2.28;;;2.17;;
16878;SDS011;8556;52.218;9.884;2023-05-10T10:49:32;2.35;;;2.17;;
16878;SDS011;8556;52.218;9.884;2023-05-10T10:52:12;2.40;;;2.30;;
16878;SDS011;8556;52.218;9.884;2023-05-10T10:54:41;2.65;;;2.45;;
16878;SDS011;8556;52.218;9.884;2023-05-10T10:57:17;2.80;;;2.60;;
16878;SDS011;8556;52.218;9.884;2023-05-10T10:59:45;3.50;;;3.20;;
16878;SDS011;8556;52.218;9.884;2023-05-10T11:08:00;3.50;;;3.10;;
16878;SDS011;8556;52.218;9.884;2023-05-10T11:10:34;3.95;;;2.97;;
16878;SDS011;8556;52.218;9.884;2023-05-10T11:13:02;3.55;;;3.22;;
16878;SDS011;8556;52.218;9.884;2023-05-10T11:15:31;3.22;;;2.92;;
16878;SDS011;8556;52.218;9.884;2023-05-10T11:17:58;3.53;;;2.67;;
16878;SDS011;8556;52.218;9.884;2023-05-10T11:20:28;3.08;;;2.55;;
16878;SDS011;8556;52.218;9.884;2023-05-10T11:23:10;3.35;;;3.05;;
16878;SDS011;8556;52.218;9.884;2023-05-10T11:25:42;3.67;;;3.05;;
16878;SDS011;8556;52.218;9.884;2023-05-10T11:28:10;3.40;;;3.10;;
16878;SDS011;8556;52.218;9.884;2023-05-10T11:30:37;3.72;;;3.35;;
16878;SDS011;8556;52.218;9.884;2023-05-10T11:33:05;7.10;;;3.08;;
16878;SDS011;8556;52.218;9.884;2023-05-10T11:35:37;3.67;;;3.00;;
16878;SDS011;8556;52.218;9.884;2023-05-10T11:38:06;3.17;;;2.70;;
16878;SDS011;8556;52.218;9.884;2023-05-10T11:40:36;4.63;;;3.08;;
16878;SDS011;8556;52.218;9.884;2023-05-10T11:43:04;3.45;;;2.92;;
16878;SDS011;8556;52.218;9.884;2023-05-10T11:45:40;4.85;;;3.25;;
16878;SDS011;8556;52.218;9.884;2023-05-10T11:48:08;3.50;;;3.15;;
16878;SDS011;8556;52.218;9.884;2023-05-10T11:50:35;5.22;;;2.80;;
16878;SDS011;8556;52.218;9.884;2023-05-10T11:53:03;4.20;;;2.75;;
16878;SDS011;8556;52.218;9.884;2023-05-10T11:55:32;4.53;;;2.60;;
16878;SDS011;8556;52.218;9.884;2023-05-10T11:58:00;4.38;;;3.10;;
16878;SDS011;8556;52.218;9.884;2023-05-10T12:00:28;4.95;;;3.28;;
16878;SDS011;8556;52.218;9.884;2023-05-10T12:02:55;6.20;;;3.42;;
16878;SDS011;8556;52.218;9.884;2023-05-10T12:05:22;4.88;;;3.30;;
16878;SDS011;8556;52.218;9.884;2023-05-10T12:07:52;4.50;;;3.75;;
16878;SDS011;8556;52.218;9.884;2023-05-10T12:10:37;3.13;;;2.83;;
16878;SDS011;8556;52.218;9.884;2023-05-10T12:13:04;3.35;;;3.05;;
16878;SDS011;8556;52.218;9.884;2023-05-10T12:15:32;4.88;;;2.95;;
16878;SDS011;8556;52.218;9.884;2023-05-10T12:17:58;5.70;;;3.67;;
16878;SDS011;8556;52.218;9.884;2023-05-10T12:20:28;5.05;;;3.40;;
16878;SDS011;8556;52.218;9.884;2023-05-10T12:22:55;3.83;;;2.70;;
16878;SDS011;8556;52.218;9.884;2023-05-10T12:25:23;3.10;;;2.80;;
16878;SDS011;8556;52.218;9.884;2023-05-10T12:27:57;4.38;;;2.70;;
16878;SDS011;8556;52.218;9.884;2023-05-10T12:30:26;3.38;;;3.08;;
16878;SDS011;8556;52.218;9.884;2023-05-10T12:32:58;3.90;;;3.20;;
16878;SDS011;8556;52.218;9.884;2023-05-10T12:35:26;5.03;;;3.85;;
16878;SDS011;8556;52.218;9.884;2023-05-10T12:37:56;9.00;;;4.47;;
16878;SDS011;8556;52.218;9.884;2023-05-10T12:40:23;8.48;;;4.13;;
16878;SDS011;8556;52.218;9.884;2023-05-10T12:42:50;8.77;;;4.28;;
16878;SDS011;8556;52.218;9.884;2023-05-10T12:45:18;6.97;;;4.60;;
16878;SDS011;8556;52.218;9.884;2023-05-10T12:47:45;6.63;;;4.70;;
16878;SDS011;8556;52.218;9.884;2023-05-10T12:50:12;6.70;;;4.32;;
16878;SDS011;8556;52.218;9.884;2023-05-10T12:52:41;6.97;;;4.68;;
16878;SDS011;8556;52.218;9.884;2023-05-10T12:55:13;5.30;;;3.85;;
16878;SDS011;8556;52.218;9.884;2023-05-10T12:57:40;6.93;;;4.10;;
16878;SDS011;8556;52.218;9.884;2023-05-10T13:00:07;6.95;;;4.38;;
16878;SDS011;8556;52.218;9.884;2023-05-10T13:02:36;5.88;;;3.78;;
16878;SDS011;8556;52.218;9.884;2023-05-10T13:05:03;5.65;;;3.45;;
16878;SDS011;8556;52.218;9.884;2023-05-10T13:07:31;4.40;;;3.45;;
16878;SDS011;8556;52.218;9.884;2023-05-10T13:09:58;3.55;;;2.83;;
16878;SDS011;8556;52.218;9.884;2023-05-10T13:12:24;3.28;;;2.65;;
16878;SDS011;8556;52.218;9.884;2023-05-10T13:14:51;4.40;;;3.53;;
16878;SDS011;8556;52.218;9.884;2023-05-10T13:17:18;4.00;;;3.17;;
16878;SDS011;8556;52.218;9.884;2023-05-10T13:19:46;4.00;;;2.65;;
16878;SDS011;8556;52.218;9.884;2023-05-10T13:22:13;4.80;;;3.75;;
16878;SDS011;8556;52.218;9.884;2023-05-10T13:24:43;4.70;;;3.50;;
16878;SDS011;8556;52.218;9.884;2023-05-10T13:27:10;5.13;;;3.38;;
16878;SDS011;8556;52.218;9.884;2023-05-10T13:29:37;4.15;;;3.00;;
16878;SDS011;8556;52.218;9.884;2023-05-10T13:32:04;4.10;;;3.28;;
16878;SDS011;8556;52.218;9.884;2023-05-10T13:34:31;3.30;;;3.00;;
16878;SDS011;8556;52.218;9.884;2023-05-10T13:36:59;3.47;;;3.10;;
16878;SDS011;8556;52.218;9.884;2023-05-10T13:39:28;5.32;;;3.22;;
16878;SDS011;8556;52.218;9.884;2023-05-10T13:41:58;5.82;;;3.10;;
16878;SDS011;8556;52.218;9.884;2023-05-10T13:44:25;2.80;;;2.60;;
16878;SDS011;8556;52.218;9.884;2023-05-10T13:46:54;2.33;;;2.10;;
16878;SDS011;8556;52.218;9.884;2023-05-10T13:49:22;3.15;;;2.63;;
16878;SDS011;8556;52.218;9.884;2023-05-10T13:51:51;3.95;;;3.05;;
16878;SDS011;8556;52.218;9.884;2023-05-10T13:54:20;4.30;;;3.35;;
16878;SDS011;8556;52.218;9.884;2023-05-10T13:56:47;2.20;;;2.00;;
16878;SDS011;8556;52.218;9.884;2023-05-10T13:59:14;2.35;;;2.15;;
16878;SDS011;8556;52.218;9.884;2023-05-10T14:01:41;2.60;;;1.80;;
16878;SDS011;8556;52.218;9.884;2023-05-10T14:04:08;3.00;;;2.33;;
16878;SDS011;8556;52.218;9.884;2023-05-10T14:06:36;2.50;;;2.30;;
16878;SDS011;8556;52.218;9.884;2023-05-10T14:09:03;4.45;;;2.35;;
16878;SDS011;8556;52.218;9.884;2023-05-10T14:11:31;3.15;;;2.35;;
16878;SDS011;8556;52.218;9.884;2023-05-10T14:13:58;3.15;;;2.70;;
16878;SDS011;8556;52.218;9.884;2023-05-10T14:16:24;4.57;;;3.65;;
16878;SDS011;8556;52.218;9.884;2023-05-10T14:18:52;2.65;;;2.30;;
16878;SDS011;8556;52.218;9.884;2023-05-10T14:21:19;2.47;;;2.20;;
16878;SDS011;8556;52.218;9.884;2023-05-10T14:23:45;2.42;;;2.22;;
16878;SDS011;8556;52.218;9.884;2023-05-10T14:26:12;3.63;;;2.60;;
16878;SDS011;8556;52.218;9.884;2023-05-10T14:28:40;3.30;;;2.28;;
16878;SDS011;8556;52.218;9.884;2023-05-10T14:31:07;2.30;;;2.10;;
16878;SDS011;8556;52.218;9.884;2023-05-10T14:33:36;4.32;;;2.50;;
16878;SDS011;8556;52.218;9.884;2023-05-10T14:36:08;3.05;;;2.33;;
16878;SDS011;8556;52.218;9.884;2023-05-10T14:38:35;2.72;;;2.53;;
16878;SDS011;8556;52.218;9.884;2023-05-10T14:41:04;4.47;;;2.53;;
16878;SDS011;8556;52.218;9.884;2023-05-10T14:43:30;3.63;;;2.50;;
16878;SDS011;8556;52.218;9.884;2023-05-10T14:45:59;2.75;;;2.53;;
16878;SDS011;8556;52.218;9.884;2023-05-10T14:48:26;3.22;;;2.35;;
16878;SDS011;8556;52.218;9.884;2023-05-10T14:50:53;2.40;;;2.20;;
16878;SDS011;8556;52.218;9.884;2023-05-10T14:53:22;2.45;;;2.13;;
16878;SDS011;8556;52.218;9.884;2023-05-10T14:55:52;3.25;;;2.67;;
16878;SDS011;8556;52.218;9.884;2023-05-10T14:58:18;3.75;;;2.50;;
16878;SDS011;8556;52.218;9.884;2023-05-10T15:00:47;2.50;;;2.30;;
16878;SDS011;8556;52.218;9.884;2023-05-10T15:03:16;2.65;;;2.33;;
16878;SDS011;8556;52.218;9.884;2023-05-10T15:05:42;2.35;;;2.15;;
16878;SDS011;8556;52.218;9.884;2023-05-10T15:08:09;2.72;;;2.53;;
16878;SDS011;8556;52.218;9.884;2023-05-10T15:10:38;3.15;;;2.55;;
16878;SDS011;8556;52.218;9.884;2023-05-10T15:13:05;3.38;;;2.38;;
16878;SDS011;8556;52.218;9.884;2023-05-10T15:15:32;4.22;;;2.80;;
16878;SDS011;8556;52.218;9.884;2023-05-10T15:17:59;5.10;;;2.85;;
16878;SDS011;8556;52.218;9.884;2023-05-10T15:20:27;4.20;;;2.95;;
16878;SDS011;8556;52.218;9.884;2023-05-10T15:22:54;4.50;;;2.78;;
16878;SDS011;8556;52.218;9.884;2023-05-10T15:25:21;5.13;;;2.70;;
16878;SDS011;8556;52.218;9.884;2023-05-10T15:27:48;4.60;;;3.55;;
16878;SDS011;8556;52.218;9.884;2023-05-10T15:30:15;4.43;;;3.10;;
16878;SDS011;8556;52.218;9.884;2023-05-10T15:32:42;3.60;;;2.80;;
16878;SDS011;8556;52.218;9.884;2023-05-10T15:35:09;3.88;;;2.60;;
16878;SDS011;8556;52.218;9.884;2023-05-10T15:37:37;3.47;;;2.70;;
16878;SDS011;8556;52.218;9.884;2023-05-10T15:40:05;5.00;;;2.95;;
16878;SDS011;8556;52.218;9.884;2023-05-10T15:42:34;3.20;;;2.70;;
16878;SDS011;8556;52.218;9.884;2023-05-10T15:45:01;3.20;;;2.42;;
16878;SDS011;8556;52.218;9.884;2023-05-10T15:47:29;3.78;;;2.80;;
16878;SDS011;8556;52.218;9.884;2023-05-10T15:49:55;3.35;;;2.72;;
16878;SDS011;8556;52.218;9.884;2023-05-10T15:52:22;3.63;;;2.55;;